createdAt,value
2023-01-17T00:02:25.616Z,7.22
2023-01-17T00:05:12.364Z,6.78
2023-01-17T00:07:58.660Z,7.03
2023-01-17T00:10:28.316Z,7.20
2023-01-17T00:12:58.560Z,6.78
2023-01-17T00:15:28.112Z,6.40
2023-01-17T00:17:55.783Z,7.28
2023-01-17T00:20:45.161Z,6.47
2023-01-17T00:23:35.765Z,6.28
2023-01-17T00:26:05.380Z,6.62
2023-01-17T00:28:38.866Z,6.53
2023-01-17T00:31:08.429Z,6.80
2023-01-17T00:33:36.841Z,7.05
2023-01-17T00:36:05.997Z,6.20
2023-01-17T00:38:36.542Z,6.15
2023-01-17T00:41:13.052Z,6.10
2023-01-17T00:43:59.475Z,6.18
2023-01-17T00:46:46.069Z,6.15
2023-01-17T00:49:32.555Z,6.22
2023-01-17T00:52:19.713Z,6.45
2023-01-17T00:55:05.637Z,6.68
2023-01-17T00:57:51.989Z,5.90
2023-01-17T01:00:38.359Z,6.35
2023-01-17T01:03:29.424Z,6.20
2023-01-17T01:06:15.530Z,6.73
2023-01-17T01:09:02.507Z,5.82
2023-01-17T01:11:49.122Z,6.47
2023-01-17T01:14:35.522Z,6.60
2023-01-17T01:17:21.820Z,6.75
2023-01-17T01:20:10.287Z,6.53
2023-01-17T01:22:56.682Z,6.15
2023-01-17T01:25:43.169Z,6.20
2023-01-17T01:28:31.587Z,5.97
2023-01-17T01:31:22.296Z,5.65
2023-01-17T01:33:53.678Z,5.95
2023-01-17T01:36:21.867Z,5.90
2023-01-17T01:38:50.381Z,5.12
2023-01-17T01:41:18.099Z,4.62
2023-01-17T01:43:51.547Z,5.05
2023-01-17T01:46:36.766Z,5.10
2023-01-17T01:49:24.964Z,4.43
2023-01-17T01:51:58.477Z,5.20
2023-01-17T01:54:35.545Z,4.90
2023-01-17T01:57:07.531Z,3.87
2023-01-17T01:59:41.768Z,4.62
2023-01-17T02:02:09.682Z,5.18
2023-01-17T02:04:38.088Z,4.93
2023-01-17T02:07:11.720Z,5.35
2023-01-17T02:09:39.590Z,4.60
2023-01-17T02:12:08.871Z,4.82
2023-01-17T02:14:36.422Z,4.05
2023-01-17T02:17:12.968Z,4.57
2023-01-17T02:20:14.620Z,4.43
2023-01-17T02:23:00.606Z,4.82
2023-01-17T02:25:46.710Z,5.60
2023-01-17T02:28:36.235Z,4.57
2023-01-17T02:31:22.201Z,4.53
2023-01-17T02:34:11.888Z,4.12
2023-01-17T02:36:48.543Z,4.50
2023-01-17T02:39:28.377Z,3.95
2023-01-17T02:42:02.787Z,4.75
2023-01-17T02:44:39.440Z,4.00
2023-01-17T02:47:21.997Z,4.07
2023-01-17T02:49:52.635Z,3.65
2023-01-17T02:52:39.133Z,4.00
2023-01-17T02:55:17.892Z,3.95
2023-01-17T02:58:13.319Z,3.85
2023-01-17T03:01:17.646Z,4.25
2023-01-17T03:03:52.191Z,4.15
2023-01-17T03:06:35.349Z,3.92
2023-01-17T03:09:04.452Z,4.28
2023-01-17T03:11:32.752Z,4.82
2023-01-17T03:14:00.368Z,3.65
2023-01-17T03:16:31.534Z,4.30
2023-01-17T03:19:00.127Z,4.18
2023-01-17T03:21:27.828Z,4.90
2023-01-17T03:23:55.775Z,5.00
2023-01-17T03:26:23.611Z,4.50
2023-01-17T03:28:51.264Z,4.20
2023-01-17T03:31:20.090Z,4.70
2023-01-17T03:33:48.497Z,4.43
2023-01-17T03:36:16.095Z,4.12
2023-01-17T03:38:43.796Z,4.45
2023-01-17T03:41:11.755Z,4.30
2023-01-17T03:43:39.370Z,4.32
2023-01-17T03:46:17.481Z,4.62
2023-01-17T03:48:46.300Z,7.97
2023-01-17T03:51:14.188Z,5.40
2023-01-17T03:53:41.977Z,46.33
2023-01-17T03:56:09.888Z,33.50
2023-01-17T03:58:37.529Z,13.15
2023-01-17T04:01:05.429Z,4.87
2023-01-17T04:03:33.649Z,15.38
2023-01-17T04:06:01.422Z,142.40
2023-01-17T04:08:30.569Z,123.47
2023-01-17T04:10:58.637Z,43.67
2023-01-17T04:13:26.245Z,8.55
2023-01-17T04:15:53.956Z,3.90
2023-01-17T04:18:23.821Z,4.22
2023-01-17T04:20:57.028Z,4.32
2023-01-17T04:23:25.151Z,4.62
2023-01-17T04:25:52.706Z,4.32
2023-01-17T04:28:20.310Z,47.67
2023-01-17T04:30:48.822Z,4.18
2023-01-17T04:33:16.450Z,5.60
2023-01-17T04:35:44.184Z,3.87
2023-01-17T04:38:12.206Z,4.35
2023-01-17T04:40:39.779Z,4.65
2023-01-17T04:43:07.279Z,4.00
2023-01-17T04:45:35.181Z,4.62
2023-01-17T04:48:05.141Z,3.95
2023-01-17T04:50:33.112Z,3.97
2023-01-17T04:53:01.198Z,3.90
2023-01-17T04:55:28.733Z,4.40
2023-01-17T04:57:56.621Z,4.45
2023-01-17T05:00:24.540Z,3.95
2023-01-17T05:02:52.162Z,4.05
2023-01-17T05:05:19.745Z,4.30
2023-01-17T05:07:58.012Z,4.37
2023-01-17T05:10:26.117Z,4.32
2023-01-17T05:12:59.253Z,5.10
2023-01-17T05:15:27.628Z,4.05
2023-01-17T05:17:55.946Z,4.30
2023-01-17T05:20:27.704Z,4.47
2023-01-17T05:22:57.187Z,4.20
2023-01-17T05:25:26.967Z,4.40
2023-01-17T05:27:55.302Z,4.22
2023-01-17T05:30:23.439Z,4.37
2023-01-17T05:32:52.712Z,4.85
2023-01-17T05:35:23.826Z,4.62
2023-01-17T05:37:52.199Z,4.40
2023-01-17T05:40:25.886Z,4.18
2023-01-17T05:42:55.787Z,4.43
2023-01-17T05:45:26.549Z,4.20
2023-01-17T05:47:55.908Z,4.20
2023-01-17T05:50:27.303Z,3.90
2023-01-17T05:52:57.249Z,4.03
2023-01-17T05:55:27.102Z,4.20
2023-01-17T05:57:55.718Z,4.68
2023-01-17T06:00:24.385Z,4.20
2023-01-17T06:02:56.640Z,4.22
2023-01-17T06:05:25.674Z,4.90
2023-01-17T06:07:54.784Z,5.03
2023-01-17T06:10:23.143Z,4.70
2023-01-17T06:12:51.157Z,4.82
2023-01-17T06:15:19.135Z,5.03
2023-01-17T06:17:46.751Z,5.30
2023-01-17T06:20:14.332Z,5.05
2023-01-17T06:22:42.223Z,5.35
2023-01-17T06:25:10.266Z,6.03
2023-01-17T06:27:37.985Z,5.65
2023-01-17T06:30:06.619Z,5.20
2023-01-17T06:32:34.187Z,5.57
2023-01-17T06:35:01.675Z,5.97
2023-01-17T06:37:29.643Z,5.75
2023-01-17T06:39:57.278Z,5.82
2023-01-17T06:42:24.959Z,6.30
2023-01-17T06:44:52.914Z,5.72
2023-01-17T06:47:20.425Z,6.20
2023-01-17T06:49:48.047Z,9.45
2023-01-17T06:52:17.075Z,8.25
2023-01-17T06:54:44.730Z,8.00
2023-01-17T06:57:12.285Z,6.95
2023-01-17T06:59:40.224Z,7.47
2023-01-17T07:02:10.719Z,6.68
2023-01-17T07:04:38.645Z,6.80
2023-01-17T07:07:06.583Z,6.57
2023-01-17T07:09:34.238Z,7.18
2023-01-17T07:12:02.122Z,7.87
2023-01-17T07:14:30.817Z,7.07
2023-01-17T07:16:58.412Z,7.03
2023-01-17T07:19:26.133Z,6.60
2023-01-17T07:21:54.820Z,7.78
2023-01-17T07:24:22.451Z,6.62
2023-01-17T07:26:51.089Z,7.00
2023-01-17T07:29:19.374Z,6.97
2023-01-17T07:31:49.151Z,11.25
2023-01-17T07:34:16.862Z,9.82
2023-01-17T07:36:44.727Z,7.28
2023-01-17T07:39:12.466Z,7.85
2023-01-17T07:41:41.471Z,6.35
2023-01-17T07:44:13.902Z,7.97
2023-01-17T07:46:41.614Z,7.12
2023-01-17T07:49:09.579Z,9.40
2023-01-17T07:51:37.244Z,6.95
2023-01-17T07:54:04.837Z,7.72
2023-01-17T07:56:34.667Z,9.40
2023-01-17T07:59:02.349Z,6.90
2023-01-17T08:01:30.263Z,6.45
2023-01-17T08:03:58.163Z,6.72
2023-01-17T08:06:26.043Z,6.87
2023-01-17T08:08:56.473Z,6.45
2023-01-17T08:11:24.729Z,6.70
2023-01-17T08:13:57.519Z,7.18
2023-01-17T08:16:26.031Z,6.32
2023-01-17T08:18:55.228Z,7.05
2023-01-17T08:21:23.498Z,6.57
2023-01-17T08:23:52.613Z,6.70
2023-01-17T08:26:22.375Z,6.90
2023-01-17T08:28:56.902Z,7.00
2023-01-17T08:31:24.911Z,6.97
2023-01-17T08:33:52.612Z,6.53
2023-01-17T08:36:20.315Z,6.82
2023-01-17T08:38:52.728Z,6.82
2023-01-17T08:41:21.225Z,6.72
2023-01-17T08:43:50.167Z,6.15
2023-01-17T08:46:18.623Z,6.03
2023-01-17T08:48:46.498Z,5.82
2023-01-17T08:51:14.430Z,5.50
2023-01-17T08:53:42.513Z,5.10
2023-01-17T08:56:10.063Z,4.37
2023-01-17T08:58:37.970Z,5.97
2023-01-17T09:01:06.595Z,9.85
2023-01-17T09:03:35.285Z,5.45
2023-01-17T09:06:05.850Z,4.40
2023-01-17T09:08:34.666Z,4.50
2023-01-17T09:11:06.830Z,4.95
2023-01-17T09:13:34.812Z,4.70
2023-01-17T09:16:03.486Z,4.35
2023-01-17T09:18:32.675Z,4.25
2023-01-17T09:21:13.994Z,3.70
2023-01-17T09:23:42.086Z,3.53
2023-01-17T09:26:23.653Z,3.40
2023-01-17T09:28:52.305Z,3.30
2023-01-17T09:31:21.431Z,3.17
2023-01-17T09:33:51.791Z,2.80
2023-01-17T09:36:20.469Z,2.95
2023-01-17T09:38:48.612Z,2.83
2023-01-17T09:41:27.750Z,3.00
2023-01-17T09:44:18.012Z,3.72
2023-01-17T09:46:48.273Z,2.75
2023-01-17T09:49:38.177Z,3.30
2023-01-17T09:52:08.587Z,3.17
2023-01-17T09:54:40.890Z,3.37
2023-01-17T09:57:39.079Z,3.10
2023-01-17T10:00:31.775Z,3.33
2023-01-17T10:03:08.999Z,2.58
2023-01-17T10:05:55.549Z,2.47
2023-01-17T10:08:29.536Z,2.60
2023-01-17T10:11:25.308Z,2.78
2023-01-17T10:14:15.830Z,2.95
2023-01-17T10:17:06.127Z,2.50
2023-01-17T10:19:54.936Z,2.83
2023-01-17T10:22:43.955Z,2.53
2023-01-17T10:25:36.627Z,2.40
2023-01-17T10:28:18.062Z,2.78
2023-01-17T10:30:51.388Z,2.67
2023-01-17T10:33:29.056Z,2.42
2023-01-17T10:36:07.519Z,2.95
2023-01-17T10:38:37.792Z,2.97
2023-01-17T10:41:21.116Z,2.58
2023-01-17T10:44:19.777Z,2.45
2023-01-17T10:47:10.411Z,2.53
2023-01-17T10:49:42.522Z,2.30
2023-01-17T10:52:36.388Z,2.20
2023-01-17T10:55:10.249Z,2.33
2023-01-17T10:57:43.684Z,2.35
2023-01-17T11:00:44.024Z,2.28
2023-01-17T11:03:13.731Z,3.07
2023-01-17T11:05:42.815Z,2.20
2023-01-17T11:08:13.567Z,2.42
2023-01-17T11:10:44.655Z,2.20
2023-01-17T11:13:26.636Z,2.42
2023-01-17T11:16:06.322Z,2.30
2023-01-17T11:18:39.488Z,2.47
2023-01-17T11:21:11.312Z,2.37
2023-01-17T11:23:42.350Z,2.40
2023-01-17T11:28:41.137Z,2.30
2023-01-17T11:31:27.171Z,2.67
2023-01-17T11:34:17.391Z,2.62
2023-01-17T11:36:45.205Z,2.58
2023-01-17T11:39:19.233Z,2.72
2023-01-17T11:41:48.005Z,2.70
2023-01-17T11:44:35.820Z,3.00
2023-01-17T11:47:12.690Z,2.90
2023-01-17T11:49:42.817Z,2.70
2023-01-17T11:52:23.254Z,2.60
2023-01-17T11:54:54.315Z,2.40
2023-01-17T11:57:24.649Z,2.08
2023-01-17T12:00:03.888Z,2.10
2023-01-17T12:03:10.108Z,2.08
2023-01-17T12:05:43.929Z,2.20
2023-01-17T12:08:27.677Z,2.30
2023-01-17T12:11:30.770Z,2.20
2023-01-17T12:14:22.819Z,2.62
2023-01-17T12:16:56.763Z,2.65
2023-01-17T12:19:39.032Z,3.83
2023-01-17T12:22:35.306Z,2.85
2023-01-17T12:25:05.616Z,1.73
2023-01-17T12:28:10.078Z,1.52
2023-01-17T12:30:59.711Z,1.67
2023-01-17T12:33:57.588Z,2.12
2023-01-17T12:36:28.271Z,1.70
2023-01-17T12:38:57.274Z,2.25
2023-01-17T12:41:33.642Z,2.05
2023-01-17T12:44:01.885Z,2.00
2023-01-17T12:46:45.298Z,1.40
2023-01-17T12:49:25.748Z,2.10
2023-01-17T12:52:03.436Z,1.55
2023-01-17T12:54:48.911Z,2.05
2023-01-17T12:57:33.666Z,3.33
2023-01-17T13:00:12.069Z,2.03
2023-01-17T13:02:54.969Z,2.75
2023-01-17T13:05:35.941Z,1.42
2023-01-17T13:08:27.065Z,2.55
2023-01-17T13:11:02.322Z,2.60
2023-01-17T13:13:31.893Z,2.45
2023-01-17T13:16:21.591Z,2.00
2023-01-17T13:18:51.998Z,3.50
2023-01-17T13:21:31.953Z,2.40
2023-01-17T13:23:59.528Z,2.10
2023-01-17T13:26:46.154Z,1.87
2023-01-17T13:29:38.247Z,1.67
2023-01-17T13:32:16.289Z,2.10
2023-01-17T13:35:22.835Z,1.80
2023-01-17T13:38:13.306Z,1.55
2023-01-17T13:41:15.849Z,2.20
2023-01-17T13:44:04.332Z,1.50
2023-01-17T13:46:51.983Z,1.30
2023-01-17T13:49:50.672Z,1.65
2023-01-17T13:52:21.070Z,1.60
2023-01-17T13:54:53.264Z,1.40
2023-01-17T13:57:29.772Z,1.60
2023-01-17T13:59:59.708Z,1.70
2023-01-17T14:02:33.088Z,2.00
2023-01-17T14:05:23.275Z,1.67
2023-01-17T14:07:53.948Z,1.10
2023-01-17T14:10:36.987Z,1.70
2023-01-17T14:13:06.762Z,1.80
2023-01-17T14:15:49.692Z,1.80
2023-01-17T14:18:40.059Z,1.73
2023-01-17T14:21:19.719Z,1.27
2023-01-17T14:23:58.483Z,1.10
2023-01-17T14:26:30.277Z,1.95
2023-01-17T14:29:18.913Z,2.17
2023-01-17T14:31:47.397Z,2.15
2023-01-17T14:34:22.708Z,1.40
2023-01-17T14:36:50.647Z,1.27
2023-01-17T14:39:24.421Z,1.23
2023-01-17T14:41:52.445Z,1.50
2023-01-17T14:44:20.120Z,1.40
2023-01-17T14:46:49.170Z,1.20
2023-01-17T14:49:25.431Z,1.40
2023-01-17T14:52:04.804Z,1.37
2023-01-17T14:54:33.495Z,1.87
2023-01-17T14:57:35.500Z,1.67
2023-01-17T15:00:21.207Z,2.87
2023-01-17T15:02:50.635Z,2.47
2023-01-17T15:05:24.642Z,3.45
2023-01-17T15:07:55.126Z,3.10
2023-01-17T15:10:30.805Z,4.80
2023-01-17T15:13:07.836Z,11.20
2023-01-17T15:15:39.660Z,6.47
2023-01-17T15:18:27.250Z,7.57
2023-01-17T15:21:03.991Z,7.25
2023-01-17T15:23:39.486Z,6.65
2023-01-17T15:26:12.638Z,7.43
2023-01-17T15:28:40.895Z,11.93
2023-01-17T15:31:13.618Z,8.10
2023-01-17T15:33:44.828Z,8.75
2023-01-17T15:36:27.328Z,8.45
2023-01-17T15:39:00.195Z,6.00
2023-01-17T15:41:37.499Z,5.12
2023-01-17T15:44:07.226Z,6.03
2023-01-17T15:46:45.665Z,5.30
2023-01-17T15:49:19.615Z,5.70
2023-01-17T15:52:08.915Z,6.90
2023-01-17T15:54:50.629Z,6.72
2023-01-17T15:57:36.946Z,8.20
2023-01-17T16:00:18.361Z,10.32
2023-01-17T16:02:58.856Z,9.77
2023-01-17T16:05:31.103Z,9.05
2023-01-17T16:08:01.725Z,7.55
2023-01-17T16:10:37.871Z,6.30
2023-01-17T16:13:07.808Z,5.35
2023-01-17T16:15:36.929Z,5.57
2023-01-17T16:18:15.420Z,5.07
2023-01-17T16:20:48.605Z,4.93
2023-01-17T16:23:17.226Z,5.10
2023-01-17T16:25:46.292Z,3.87
2023-01-17T16:28:13.841Z,3.92
2023-01-17T16:30:41.646Z,3.85
2023-01-17T16:33:13.452Z,4.25
2023-01-17T16:35:43.057Z,3.45
2023-01-17T16:38:13.048Z,3.67
2023-01-17T16:40:46.011Z,5.62
2023-01-17T16:43:15.832Z,7.30
2023-01-17T16:45:52.764Z,8.10
2023-01-17T16:48:21.682Z,8.32
2023-01-17T16:50:52.340Z,8.15
2023-01-17T16:53:24.289Z,6.57
2023-01-17T16:55:57.649Z,3.87
2023-01-17T16:58:25.446Z,3.40
2023-01-17T17:00:55.482Z,4.93
2023-01-17T17:03:23.222Z,4.60
2023-01-17T17:05:59.498Z,4.80
2023-01-17T17:08:31.528Z,4.95
2023-01-17T17:13:44.925Z,4.97
2023-01-17T17:16:27.439Z,5.50
2023-01-17T17:19:15.815Z,5.12
2023-01-17T17:21:43.383Z,5.78
2023-01-17T17:24:15.438Z,5.93
2023-01-17T17:26:43.821Z,6.57
2023-01-17T17:29:14.785Z,7.57
2023-01-17T17:31:43.773Z,7.53
2023-01-17T17:34:13.426Z,6.53
2023-01-17T17:36:42.004Z,7.15
2023-01-17T17:39:14.958Z,5.95
2023-01-17T17:41:45.651Z,5.20
2023-01-17T17:44:13.323Z,5.87
2023-01-17T17:46:42.992Z,6.18
2023-01-17T17:49:11.152Z,5.45
2023-01-17T17:51:40.343Z,6.57
2023-01-17T17:54:13.053Z,6.82
2023-01-17T17:56:46.366Z,11.43
2023-01-17T17:59:18.343Z,9.43
2023-01-17T18:01:47.053Z,11.30
2023-01-17T18:04:15.039Z,12.18
2023-01-17T18:06:43.023Z,7.25
2023-01-17T18:09:12.428Z,10.73
2023-01-17T18:11:42.650Z,13.80
2023-01-17T18:14:14.221Z,10.40
2023-01-17T18:16:44.851Z,11.40
2023-01-17T18:19:20.901Z,10.77
2023-01-17T18:21:51.331Z,12.37
2023-01-17T18:24:24.324Z,10.25
2023-01-17T18:26:57.606Z,7.50
2023-01-17T18:29:27.200Z,8.77
2023-01-17T18:31:56.166Z,8.73
2023-01-17T18:34:29.118Z,5.95
2023-01-17T18:36:57.941Z,6.12
2023-01-17T18:39:28.749Z,5.18
2023-01-17T18:41:56.989Z,4.18
2023-01-17T18:44:26.744Z,3.97
2023-01-17T18:46:55.322Z,4.32
2023-01-17T18:49:23.092Z,3.45
2023-01-17T18:51:51.755Z,6.22
2023-01-17T18:54:20.659Z,4.80
2023-01-17T18:56:48.772Z,6.53
2023-01-17T18:59:18.606Z,7.87
2023-01-17T19:01:47.291Z,4.78
2023-01-17T19:04:17.371Z,4.80
2023-01-17T19:06:47.752Z,4.65
2023-01-17T19:09:16.417Z,10.77
2023-01-17T19:11:45.489Z,8.77
2023-01-17T19:14:14.507Z,7.97
2023-01-17T19:16:43.899Z,5.45
2023-01-17T19:19:14.597Z,7.03
2023-01-17T19:21:42.971Z,4.43
2023-01-17T19:24:13.230Z,6.55
2023-01-17T19:26:42.322Z,6.57
2023-01-17T19:29:10.851Z,5.55
2023-01-17T19:31:43.106Z,4.20
2023-01-17T19:34:14.219Z,3.95
2023-01-17T19:36:41.925Z,3.72
2023-01-17T19:39:10.608Z,3.67
2023-01-17T19:41:43.555Z,3.80
2023-01-17T19:44:12.962Z,3.95
2023-01-17T19:46:41.135Z,4.03
2023-01-17T19:49:09.573Z,4.35
2023-01-17T19:51:39.414Z,3.30
2023-01-17T19:54:08.468Z,3.58
2023-01-17T19:56:36.295Z,3.15
2023-01-17T19:59:04.198Z,3.60
2023-01-17T20:01:33.742Z,3.30
2023-01-17T20:04:03.365Z,3.10
2023-01-17T20:06:35.970Z,2.67
2023-01-17T20:09:06.023Z,3.30
2023-01-17T20:11:33.947Z,2.97
2023-01-17T20:14:01.914Z,3.28
2023-01-17T20:16:34.748Z,3.15
2023-01-17T20:19:03.545Z,3.22
2023-01-17T20:21:32.299Z,2.78
2023-01-17T20:24:03.344Z,2.97
2023-01-17T20:29:16.266Z,3.03
2023-01-17T20:31:48.187Z,2.92
2023-01-17T20:34:18.756Z,2.95
2023-01-17T20:36:47.376Z,2.87
2023-01-17T20:39:15.771Z,2.70
2023-01-17T20:41:46.107Z,2.87
2023-01-17T20:44:15.737Z,3.17
2023-01-17T20:46:43.667Z,3.25
2023-01-17T20:49:15.250Z,3.22
2023-01-17T20:51:45.447Z,3.42
2023-01-17T20:54:16.142Z,3.37
2023-01-17T20:56:47.348Z,6.37
